createdAt,value
2023-05-02T00:04:00.401Z,12.21
2023-05-02T00:14:26.291Z,12.13
2023-05-02T00:24:52.508Z,11.93
2023-05-02T00:35:18.098Z,11.79
2023-05-02T00:45:46.413Z,11.73
2023-05-02T00:56:12.394Z,11.60
2023-05-02T01:06:49.266Z,11.41
2023-05-02T01:17:18.270Z,11.28
2023-05-02T01:27:57.772Z,11.20
2023-05-02T01:38:26.449Z,11.05
2023-05-02T01:48:56.341Z,10.93
2023-05-02T01:59:24.042Z,10.92
2023-05-02T02:09:50.490Z,10.94
2023-05-02T02:20:18.102Z,10.74
2023-05-02T02:30:43.885Z,10.70
2023-05-02T02:41:17.857Z,10.76
2023-05-02T02:51:52.196Z,10.81
2023-05-02T03:02:32.205Z,10.93
2023-05-02T03:12:57.966Z,11.02
2023-05-02T03:23:23.429Z,11.04
2023-05-02T03:33:49.259Z,11.02
2023-05-02T03:44:15.219Z,10.94
2023-05-02T03:54:41.830Z,10.87
2023-05-02T04:05:28.076Z,10.82
2023-05-02T04:15:53.896Z,10.99
2023-05-02T04:26:19.870Z,11.06
2023-05-02T04:36:48.010Z,11.20
2023-05-02T04:47:12.399Z,11.36
2023-05-02T04:57:40.134Z,11.57
2023-05-02T05:08:06.427Z,12.02
2023-05-02T05:18:34.530Z,12.53
2023-05-02T05:39:42.777Z,13.69
2023-05-02T05:50:11.047Z,14.37
2023-05-02T06:00:39.023Z,15.02
2023-05-02T06:11:02.986Z,15.64
2023-05-02T06:21:29.256Z,15.92
2023-05-02T06:31:58.029Z,15.80
2023-05-02T06:42:24.216Z,15.88
2023-05-02T06:52:50.157Z,16.20
2023-05-02T07:03:15.946Z,16.44
2023-05-02T07:13:41.413Z,16.79
2023-05-02T07:24:07.834Z,17.34
2023-05-02T07:34:33.985Z,17.83
2023-05-02T07:45:00.384Z,18.36
2023-05-02T07:55:27.766Z,18.80
2023-05-02T08:05:53.323Z,19.25
2023-05-02T08:16:20.117Z,19.61
2023-05-02T08:26:45.725Z,19.78
2023-05-02T08:37:13.390Z,19.82
2023-05-02T08:47:38.016Z,19.81
2023-05-02T08:58:06.199Z,19.60
2023-05-02T09:08:32.182Z,19.45
2023-05-02T09:18:59.083Z,19.28
2023-05-02T09:29:24.940Z,19.21
2023-05-02T09:40:09.445Z,19.25
2023-05-02T09:50:39.659Z,19.37
2023-05-02T10:01:06.166Z,19.53
2023-05-02T10:11:33.640Z,19.87
2023-05-02T10:22:00.611Z,20.27
2023-05-02T10:32:28.957Z,20.40
2023-05-02T10:42:55.755Z,20.20
2023-05-02T10:53:31.055Z,20.12
2023-05-02T11:04:01.564Z,20.15
2023-05-02T11:14:53.134Z,20.19
2023-05-02T11:25:36.517Z,20.26
2023-05-02T11:36:02.991Z,20.04
2023-05-02T11:46:29.123Z,19.72
2023-05-02T11:56:55.088Z,19.51
2023-05-02T12:07:20.700Z,19.33
2023-05-02T12:17:48.662Z,19.21
2023-05-02T12:28:14.887Z,19.13
2023-05-02T12:38:41.053Z,19.06
2023-05-02T12:49:09.869Z,18.78
2023-05-02T12:59:36.048Z,18.69
2023-05-02T13:10:02.654Z,18.75
2023-05-02T13:20:28.735Z,18.66
2023-05-02T13:30:54.271Z,18.57
2023-05-02T13:41:20.287Z,18.59
2023-05-02T13:51:46.431Z,18.53
2023-05-02T14:02:12.327Z,18.51
2023-05-02T14:12:38.099Z,18.46
2023-05-02T14:23:05.313Z,18.30
2023-05-02T14:33:33.231Z,18.16
2023-05-02T14:43:59.327Z,18.05
2023-05-02T14:54:30.723Z,17.91
2023-05-02T15:04:56.713Z,17.80
2023-05-02T15:15:25.185Z,17.64
2023-05-02T15:25:51.014Z,17.48
2023-05-02T15:36:17.394Z,17.37
2023-05-02T15:46:47.077Z,17.21
2023-05-02T15:57:13.338Z,17.08
2023-05-02T16:07:39.341Z,16.90
2023-05-02T16:18:05.607Z,16.87
2023-05-02T16:28:31.705Z,16.81
2023-05-02T16:38:57.457Z,16.80
2023-05-02T16:49:23.446Z,16.54
2023-05-02T16:59:49.965Z,16.30
2023-05-02T17:10:16.337Z,16.15
2023-05-02T17:20:42.426Z,16.06
2023-05-02T17:31:08.505Z,15.88
2023-05-02T17:41:36.323Z,15.92
2023-05-02T17:52:02.188Z,16.04
2023-05-02T18:02:28.507Z,16.09
2023-05-02T18:12:54.725Z,16.07
2023-05-02T18:23:20.172Z,15.91
2023-05-02T18:33:46.770Z,15.92
2023-05-02T18:44:13.327Z,15.89
2023-05-02T18:54:39.284Z,15.85
2023-05-02T19:05:08.207Z,15.73
2023-05-02T19:15:36.099Z,15.70
2023-05-02T19:26:02.002Z,15.65
2023-05-02T19:36:28.640Z,15.53
2023-05-02T19:46:54.381Z,15.33
2023-05-02T19:57:20.543Z,15.37
2023-05-02T20:07:46.589Z,15.44
2023-05-02T20:18:12.147Z,15.33
2023-05-02T20:28:38.889Z,15.23
2023-05-02T20:39:07.555Z,15.24
2023-05-02T20:49:34.880Z,15.13
2023-05-02T21:00:00.913Z,15.10
2023-05-02T21:10:28.130Z,15.10
2023-05-02T21:20:53.758Z,14.97
2023-05-02T21:31:19.917Z,15.03
2023-05-02T21:41:45.622Z,14.96
2023-05-02T21:52:11.354Z,14.97
2023-05-02T22:02:37.144Z,14.92
2023-05-02T22:13:03.622Z,14.86
2023-05-02T22:23:31.846Z,14.76
2023-05-02T22:33:57.841Z,14.72
2023-05-02T22:44:23.926Z,14.74
2023-05-02T22:54:49.569Z,14.72
2023-05-02T23:05:15.583Z,14.73
2023-05-02T23:15:41.764Z,14.72
2023-05-02T23:26:10.522Z,14.58
2023-05-02T23:36:36.663Z,14.48
2023-05-02T23:47:02.862Z,14.49
2023-05-02T23:57:30.220Z,14.51
